createdAt,value
2022-10-18T00:00:50.178Z,99.23
2022-10-18T00:03:17.266Z,98.83
2022-10-18T00:05:44.347Z,98.64
2022-10-18T00:08:11.340Z,98.94
2022-10-18T00:10:38.569Z,98.56
2022-10-18T00:13:05.950Z,98.66
2022-10-18T00:15:32.986Z,98.10
2022-10-18T00:18:00.038Z,98.26
2022-10-18T00:20:27.059Z,97.95
2022-10-18T00:22:54.256Z,97.76
2022-10-18T00:25:21.232Z,98.21
2022-10-18T00:27:48.376Z,98.25
2022-10-18T00:30:15.445Z,98.58
2022-10-18T00:32:42.520Z,98.73
2022-10-18T00:35:09.783Z,98.73
2022-10-18T00:37:36.859Z,98.23
2022-10-18T00:40:04.446Z,98.29
2022-10-18T00:42:32.915Z,98.13
2022-10-18T00:45:23.145Z,98.24
2022-10-18T00:48:00.724Z,98.07
2022-10-18T00:50:31.065Z,98.26
2022-10-18T00:52:59.568Z,98.03
2022-10-18T00:55:27.716Z,98.36
2022-10-18T00:57:55.594Z,98.77
2022-10-18T01:00:22.793Z,98.10
2022-10-18T01:02:49.830Z,98.42
2022-10-18T01:05:18.239Z,98.88
2022-10-18T01:07:53.830Z,98.30
2022-10-18T01:10:23.719Z,98.06
2022-10-18T01:12:50.795Z,98.03
2022-10-18T01:15:17.736Z,98.18
2022-10-18T01:18:03.469Z,98.23
2022-10-18T01:20:36.577Z,98.91
2022-10-18T01:23:15.972Z,98.88
2022-10-18T01:26:01.950Z,98.92
2022-10-18T01:28:32.069Z,99.46
2022-10-18T01:31:01.337Z,99.56
2022-10-18T01:33:39.601Z,99.31
2022-10-18T01:36:15.887Z,99.68
2022-10-18T01:38:43.555Z,99.44
2022-10-18T01:41:14.912Z,99.02
2022-10-18T01:43:44.060Z,99.05
2022-10-18T01:46:11.573Z,99.40
2022-10-18T01:48:39.060Z,99.40
2022-10-18T01:51:06.083Z,99.85
2022-10-18T01:53:34.348Z,100.00
2022-10-18T01:56:09.864Z,100.00
2022-10-18T01:58:41.846Z,100.00
2022-10-18T02:01:17.638Z,100.00
2022-10-18T02:03:47.630Z,100.00
2022-10-18T02:06:20.104Z,100.00
2022-10-18T02:08:51.994Z,100.00
2022-10-18T02:11:19.116Z,100.00
2022-10-18T02:13:57.706Z,100.00
2022-10-18T02:16:43.335Z,100.00
2022-10-18T02:19:13.639Z,100.00
2022-10-18T02:21:42.141Z,100.00
2022-10-18T02:24:10.126Z,100.00
2022-10-18T02:26:37.127Z,100.00
2022-10-18T02:29:04.350Z,100.00
2022-10-18T02:31:35.552Z,100.00
2022-10-18T02:34:06.419Z,100.00
2022-10-18T02:36:35.914Z,100.00
2022-10-18T02:39:04.428Z,100.00
2022-10-18T02:41:32.085Z,100.00
2022-10-18T02:43:59.295Z,100.00
2022-10-18T02:48:54.236Z,100.00
2022-10-18T02:51:21.257Z,100.00
2022-10-18T02:53:48.348Z,100.00
2022-10-18T02:56:15.370Z,100.00
2022-10-18T02:58:42.393Z,100.00
2022-10-18T03:01:09.394Z,100.00
2022-10-18T03:03:36.488Z,100.00
2022-10-18T03:06:03.524Z,100.00
2022-10-18T03:08:30.732Z,100.00
2022-10-18T03:10:57.696Z,100.00
2022-10-18T03:13:24.923Z,100.00
2022-10-18T03:15:52.077Z,100.00
2022-10-18T03:18:19.056Z,100.00
2022-10-18T03:20:46.076Z,100.00
2022-10-18T03:23:13.111Z,100.00
2022-10-18T03:25:42.819Z,100.00
2022-10-18T03:28:12.802Z,100.00
2022-10-18T03:30:39.820Z,100.00
2022-10-18T03:33:06.881Z,100.00
2022-10-18T03:35:33.953Z,100.00
2022-10-18T03:38:01.066Z,100.00
2022-10-18T03:40:28.097Z,100.00
2022-10-18T03:42:55.182Z,100.00
2022-10-18T03:45:22.188Z,100.00
2022-10-18T03:47:49.245Z,100.00
2022-10-18T03:50:16.265Z,100.00
2022-10-18T03:52:43.288Z,100.00
2022-10-18T03:55:10.271Z,100.00
2022-10-18T03:57:37.263Z,100.00
2022-10-18T04:00:04.622Z,100.00
2022-10-18T04:02:38.971Z,100.00
2022-10-18T04:05:07.483Z,100.00
2022-10-18T04:10:01.857Z,100.00
2022-10-18T04:12:29.034Z,100.00
2022-10-18T04:14:56.180Z,100.00
2022-10-18T04:17:23.328Z,100.00
2022-10-18T04:19:50.353Z,100.00
2022-10-18T04:22:17.449Z,100.00
2022-10-18T04:24:44.452Z,100.00
2022-10-18T04:27:11.565Z,100.00
2022-10-18T04:29:38.645Z,100.00
2022-10-18T04:32:05.753Z,100.00
2022-10-18T04:34:32.784Z,100.00
2022-10-18T04:37:00.005Z,100.00
2022-10-18T04:39:27.100Z,100.00
2022-10-18T04:41:54.255Z,100.00
2022-10-18T04:44:21.275Z,100.00
2022-10-18T04:46:48.307Z,100.00
2022-10-18T04:49:15.247Z,100.00
2022-10-18T04:51:42.308Z,100.00
2022-10-18T04:54:09.287Z,100.00
2022-10-18T04:56:36.324Z,100.00
2022-10-18T04:59:03.445Z,100.00
2022-10-18T05:01:30.606Z,100.00
2022-10-18T05:03:57.617Z,100.00
2022-10-18T05:06:24.715Z,100.00
2022-10-18T05:08:51.807Z,100.00
2022-10-18T05:11:18.859Z,100.00
2022-10-18T05:13:47.274Z,100.00
2022-10-18T05:16:17.165Z,100.00
2022-10-18T05:18:44.544Z,100.00
2022-10-18T05:21:12.441Z,100.00
2022-10-18T05:23:39.768Z,100.00
2022-10-18T05:26:07.136Z,100.00
2022-10-18T05:28:39.806Z,100.00
2022-10-18T05:31:08.983Z,100.00
2022-10-18T05:33:36.352Z,100.00
2022-10-18T05:36:06.776Z,100.00
2022-10-18T05:38:42.878Z,100.00
2022-10-18T05:41:10.985Z,100.00
2022-10-18T05:43:39.100Z,100.00
2022-10-18T05:46:13.450Z,100.00
2022-10-18T05:48:42.104Z,100.00
2022-10-18T05:51:12.617Z,100.00
2022-10-18T05:54:05.082Z,100.00
2022-10-18T05:56:32.315Z,100.00
2022-10-18T05:58:59.395Z,100.00
2022-10-18T06:01:31.772Z,100.00
2022-10-18T06:04:02.594Z,100.00
2022-10-18T06:06:35.730Z,100.00
2022-10-18T06:09:05.462Z,100.00
2022-10-18T06:11:33.780Z,100.00
2022-10-18T06:14:05.361Z,100.00
2022-10-18T06:19:06.859Z,100.00
2022-10-18T06:21:35.839Z,100.00
2022-10-18T06:24:03.652Z,100.00
2022-10-18T06:26:37.605Z,100.00
2022-10-18T06:29:04.971Z,100.00
2022-10-18T06:31:42.235Z,100.00
2022-10-18T06:34:18.720Z,100.00
2022-10-18T06:37:14.657Z,100.00
2022-10-18T06:39:43.734Z,100.00
2022-10-18T06:42:13.213Z,100.00
2022-10-18T06:44:43.913Z,97.77
2022-10-18T06:47:14.235Z,96.42
2022-10-18T06:49:44.067Z,96.10
2022-10-18T06:52:11.232Z,96.86
2022-10-18T06:54:38.632Z,96.23
2022-10-18T06:57:06.970Z,98.13
2022-10-18T06:59:34.036Z,98.68
2022-10-18T07:02:01.288Z,95.97
2022-10-18T07:04:56.718Z,97.43
2022-10-18T07:07:33.251Z,96.35
2022-10-18T07:10:25.770Z,97.37
2022-10-18T07:13:07.999Z,96.90
2022-10-18T07:15:41.778Z,95.43
2022-10-18T07:18:09.120Z,94.88
2022-10-18T07:20:59.545Z,94.37
2022-10-18T07:23:26.699Z,91.34
2022-10-18T07:26:03.262Z,91.34
2022-10-18T07:28:35.483Z,90.48
2022-10-18T07:31:09.749Z,90.32
2022-10-18T07:33:55.797Z,89.26
2022-10-18T07:36:26.553Z,88.25
2022-10-18T07:39:02.885Z,86.37
2022-10-18T07:41:45.897Z,85.44
2022-10-18T07:44:15.577Z,85.16
2022-10-18T07:50:06.765Z,83.45
2022-10-18T07:52:39.710Z,82.56
2022-10-18T07:55:34.742Z,83.42
2022-10-18T07:58:05.232Z,82.09
2022-10-18T08:00:39.107Z,81.28
2022-10-18T08:03:12.875Z,81.72
2022-10-18T08:05:46.797Z,81.56
2022-10-18T08:08:17.586Z,81.79
2022-10-18T08:10:48.444Z,80.07
2022-10-18T08:13:37.313Z,80.30
2022-10-18T08:16:11.781Z,79.44
2022-10-18T08:18:42.746Z,79.60
2022-10-18T08:21:15.723Z,78.77
2022-10-18T08:23:43.724Z,77.69
2022-10-18T08:26:20.648Z,76.37
2022-10-18T08:28:53.953Z,74.04
2022-10-18T08:31:21.386Z,71.97
2022-10-18T08:33:50.470Z,73.18
2022-10-18T08:36:17.620Z,71.68
2022-10-18T08:38:53.163Z,70.62
2022-10-18T08:41:46.044Z,68.55
2022-10-18T08:44:29.302Z,67.38
2022-10-18T08:47:00.874Z,66.88
2022-10-18T08:49:46.903Z,67.67
2022-10-18T08:52:34.219Z,68.31
2022-10-18T08:55:13.820Z,67.94
2022-10-18T08:57:42.845Z,67.72
2022-10-18T09:00:25.997Z,65.89
2022-10-18T09:05:52.117Z,63.69
2022-10-18T09:08:32.825Z,63.80
2022-10-18T09:11:07.037Z,64.35
2022-10-18T09:13:53.068Z,62.18
2022-10-18T09:16:36.600Z,62.18
2022-10-18T09:19:03.648Z,62.87
2022-10-18T09:21:39.997Z,64.55
2022-10-18T09:24:28.164Z,64.55
2022-10-18T09:26:58.197Z,63.57
2022-10-18T09:29:27.654Z,62.33
2022-10-18T09:32:02.506Z,63.05
2022-10-18T09:34:55.269Z,61.52
2022-10-18T09:37:24.250Z,62.44
2022-10-18T09:39:55.112Z,61.45
2022-10-18T09:42:30.975Z,60.06
2022-10-18T09:45:22.783Z,59.45
2022-10-18T09:48:08.703Z,59.44
2022-10-18T09:50:48.854Z,58.88
2022-10-18T09:53:40.654Z,57.90
2022-10-18T09:56:20.738Z,56.70
2022-10-18T09:58:54.145Z,57.04
2022-10-18T10:01:26.552Z,56.97
2022-10-18T10:03:55.987Z,56.64
2022-10-18T10:06:25.907Z,55.71
2022-10-18T10:08:57.256Z,55.40
2022-10-18T10:11:30.253Z,56.20
2022-10-18T10:13:59.661Z,55.22
2022-10-18T10:16:29.844Z,56.02
2022-10-18T10:19:00.095Z,55.93
2022-10-18T10:21:30.375Z,54.63
2022-10-18T10:23:59.680Z,53.86
2022-10-18T10:26:46.273Z,54.33
2022-10-18T10:29:44.566Z,55.93
2022-10-18T10:32:21.072Z,55.63
2022-10-18T10:34:54.396Z,55.78
2022-10-18T10:37:35.473Z,53.81
2022-10-18T10:40:22.902Z,53.27
2022-10-18T10:43:36.410Z,54.14
2022-10-18T10:46:07.358Z,53.79
2022-10-18T10:48:40.670Z,53.72
2022-10-18T10:51:10.928Z,53.79
2022-10-18T10:53:40.775Z,55.00
2022-10-18T10:56:24.594Z,53.45
2022-10-18T10:58:54.959Z,54.80
2022-10-18T11:01:41.425Z,52.24
2022-10-18T11:04:30.477Z,52.78
2022-10-18T11:07:22.733Z,53.42
2022-10-18T11:10:05.506Z,52.87
2022-10-18T11:12:47.934Z,53.94
2022-10-18T11:15:28.782Z,52.12
2022-10-18T11:18:17.521Z,51.70
2022-10-18T11:20:55.686Z,50.99
2022-10-18T11:23:29.025Z,50.48
2022-10-18T11:26:13.532Z,50.11
2022-10-18T11:29:01.880Z,49.85
2022-10-18T11:32:11.402Z,51.65
2022-10-18T11:34:48.864Z,50.41
2022-10-18T11:37:31.249Z,49.63
2022-10-18T11:40:19.634Z,50.55
2022-10-18T11:43:01.380Z,51.10
2022-10-18T11:45:38.337Z,50.91
2022-10-18T11:48:24.206Z,51.25
2022-10-18T11:50:59.731Z,50.71
2022-10-18T11:53:29.951Z,51.83
2022-10-18T11:56:12.878Z,51.98
2022-10-18T11:58:59.315Z,51.38
2022-10-18T12:01:29.506Z,50.43
2022-10-18T12:04:03.628Z,50.20
2022-10-18T12:06:38.975Z,49.21
2022-10-18T12:09:28.906Z,48.57
2022-10-18T12:12:01.049Z,48.95
2022-10-18T12:14:33.375Z,47.95
2022-10-18T12:17:39.666Z,48.62
2022-10-18T12:19:57.275Z,49.42
2022-10-18T12:22:32.669Z,49.88
2022-10-18T12:25:00.191Z,49.46
2022-10-18T12:27:40.788Z,49.73
2022-10-18T12:30:32.240Z,49.91
2022-10-18T12:33:27.197Z,50.62
2022-10-18T12:36:04.422Z,51.07
2022-10-18T12:38:35.642Z,51.59
2022-10-18T12:41:04.433Z,52.74
2022-10-18T12:43:36.881Z,53.06
2022-10-18T12:46:13.619Z,53.02
2022-10-18T12:48:45.439Z,54.17
2022-10-18T12:51:15.185Z,54.12
2022-10-18T12:53:51.709Z,53.81
2022-10-18T12:56:28.161Z,53.75
2022-10-18T12:59:14.126Z,54.57
2022-10-18T13:01:50.761Z,52.96
2022-10-18T13:04:27.625Z,53.08
2022-10-18T13:06:58.061Z,53.11
2022-10-18T13:09:28.532Z,52.58
2022-10-18T13:12:10.724Z,51.84
2022-10-18T13:15:24.298Z,51.43
2022-10-18T13:18:04.460Z,52.81
2022-10-18T13:20:39.389Z,52.13
2022-10-18T13:23:28.968Z,53.37
2022-10-18T13:26:00.021Z,53.26
2022-10-18T13:28:30.077Z,53.73
2022-10-18T13:31:09.324Z,54.30
2022-10-18T13:33:39.031Z,54.31
2022-10-18T13:36:06.129Z,53.52
2022-10-18T13:38:42.304Z,53.81
2022-10-18T13:41:09.476Z,55.23
2022-10-18T13:43:58.556Z,54.09
2022-10-18T13:46:35.045Z,54.32
2022-10-18T13:49:17.366Z,53.86
2022-10-18T13:52:18.531Z,53.93
2022-10-18T13:55:04.200Z,54.42
2022-10-18T13:57:43.318Z,54.46
2022-10-18T14:00:38.290Z,53.60
2022-10-18T14:03:37.923Z,53.94
2022-10-18T14:06:22.598Z,54.22
2022-10-18T14:09:25.976Z,52.68
2022-10-18T14:12:14.743Z,53.26
2022-10-18T14:15:05.307Z,54.11
2022-10-18T14:17:42.696Z,54.85
2022-10-18T14:20:14.351Z,53.67
2022-10-18T14:23:00.367Z,55.48
2022-10-18T14:25:31.904Z,54.94
2022-10-18T14:28:14.408Z,55.11
2022-10-18T14:30:59.836Z,55.96
2022-10-18T14:33:35.850Z,55.99
2022-10-18T14:36:15.550Z,56.01
2022-10-18T14:38:51.753Z,56.28
2022-10-18T14:41:33.255Z,55.56
2022-10-18T14:44:15.966Z,56.06
2022-10-18T14:46:45.190Z,56.92
2022-10-18T14:49:13.767Z,57.32
2022-10-18T14:51:43.493Z,57.45
2022-10-18T14:54:39.001Z,58.54
2022-10-18T14:57:07.459Z,58.28
2022-10-18T14:59:44.875Z,58.86
2022-10-18T15:02:21.260Z,57.71
2022-10-18T15:04:57.712Z,58.10
2022-10-18T15:07:28.592Z,58.61
2022-10-18T15:09:59.395Z,58.51
2022-10-18T15:12:33.928Z,58.94
2022-10-18T15:15:27.338Z,59.43
2022-10-18T15:17:55.167Z,59.77
2022-10-18T15:20:34.178Z,58.58
2022-10-18T15:23:24.002Z,59.44
2022-10-18T15:25:53.940Z,59.91
2022-10-18T15:28:35.725Z,61.33
2022-10-18T15:31:04.660Z,60.68
2022-10-18T15:33:34.620Z,59.35
2022-10-18T15:36:29.630Z,63.54
2022-10-18T15:39:15.617Z,63.01
2022-10-18T15:41:54.149Z,64.23
2022-10-18T15:44:26.144Z,65.96
2022-10-18T15:47:09.011Z,67.50
2022-10-18T15:49:45.320Z,68.52
2022-10-18T15:52:21.755Z,68.80
2022-10-18T15:57:21.484Z,69.70
2022-10-18T15:59:54.910Z,71.03
2022-10-18T16:02:22.187Z,72.44
2022-10-18T16:04:49.409Z,72.59
2022-10-18T16:07:16.852Z,72.30
2022-10-18T16:09:44.157Z,73.37
2022-10-18T16:12:11.335Z,74.62
2022-10-18T16:14:38.438Z,74.63
2022-10-18T16:17:07.183Z,74.76
2022-10-18T16:19:34.471Z,75.51
2022-10-18T16:22:06.382Z,75.86
2022-10-18T16:24:34.134Z,75.40
2022-10-18T16:27:01.423Z,76.12
2022-10-18T16:29:31.939Z,76.58
2022-10-18T16:31:59.986Z,77.40
2022-10-18T16:34:27.614Z,77.50
2022-10-18T16:36:55.449Z,77.36
2022-10-18T16:39:23.381Z,77.91
2022-10-18T16:41:51.284Z,77.04
2022-10-18T16:44:19.136Z,77.10
2022-10-18T16:46:50.994Z,76.91
2022-10-18T16:49:24.435Z,77.76
2022-10-18T16:51:53.028Z,78.40
2022-10-18T16:54:20.174Z,78.23
2022-10-18T16:56:50.410Z,78.57
2022-10-18T16:59:28.755Z,78.97
2022-10-18T17:01:55.900Z,79.11
2022-10-18T17:04:23.127Z,78.29
2022-10-18T17:06:50.779Z,78.20
2022-10-18T17:09:17.874Z,77.76
2022-10-18T17:11:44.922Z,78.26
2022-10-18T17:14:11.948Z,78.04
2022-10-18T17:16:39.236Z,77.73
2022-10-18T17:19:07.950Z,78.27
2022-10-18T17:21:35.250Z,78.44
2022-10-18T17:24:04.199Z,78.34
2022-10-18T17:26:31.428Z,78.17
2022-10-18T17:29:00.143Z,78.09
2022-10-18T17:31:28.277Z,78.17
2022-10-18T17:33:55.428Z,78.37
2022-10-18T17:36:22.583Z,78.75
2022-10-18T17:38:50.623Z,79.33
2022-10-18T17:41:17.639Z,79.43
2022-10-18T17:43:44.840Z,79.12
2022-10-18T17:46:13.068Z,79.48
2022-10-18T17:48:40.708Z,79.45
2022-10-18T17:51:08.903Z,79.62
2022-10-18T17:53:36.170Z,78.99
2022-10-18T17:56:03.619Z,78.14
2022-10-18T17:58:31.359Z,77.79
2022-10-18T18:01:07.437Z,78.13
2022-10-18T18:03:34.523Z,78.25
2022-10-18T18:06:10.820Z,78.87
2022-10-18T18:08:37.864Z,79.22
2022-10-18T18:11:04.878Z,79.31
2022-10-18T18:13:31.901Z,79.83
2022-10-18T18:16:08.937Z,79.04
2022-10-18T18:18:36.036Z,79.57
2022-10-18T18:21:03.088Z,79.52
2022-10-18T18:23:30.132Z,79.68
2022-10-18T18:25:57.464Z,80.17
2022-10-18T18:28:24.645Z,80.70
2022-10-18T18:30:51.736Z,81.49
2022-10-18T18:33:18.745Z,81.86
2022-10-18T18:35:53.920Z,82.18
2022-10-18T18:38:20.955Z,82.79
2022-10-18T18:40:47.904Z,83.46
2022-10-18T18:43:29.679Z,83.93
2022-10-18T18:45:56.724Z,84.77
2022-10-18T18:48:23.754Z,84.80
2022-10-18T18:50:51.820Z,85.69
2022-10-18T18:53:19.152Z,85.85
2022-10-18T18:55:46.396Z,86.52
2022-10-18T18:58:13.352Z,86.91
2022-10-18T19:00:44.240Z,87.29
2022-10-18T19:03:12.283Z,87.38
2022-10-18T19:05:39.287Z,87.58
2022-10-18T19:08:06.616Z,87.61
2022-10-18T19:10:33.735Z,87.54
2022-10-18T19:13:00.749Z,88.29
2022-10-18T19:15:27.813Z,87.85
2022-10-18T19:17:55.675Z,88.04
2022-10-18T19:20:22.703Z,88.23
2022-10-18T19:22:49.719Z,88.78
2022-10-18T19:25:16.938Z,88.17
2022-10-18T19:27:43.982Z,88.78
2022-10-18T19:30:11.336Z,88.47
2022-10-18T19:32:38.450Z,88.48
2022-10-18T19:35:05.593Z,88.56
2022-10-18T19:37:33.114Z,89.12
2022-10-18T19:40:00.809Z,89.07
2022-10-18T19:42:31.299Z,89.54
2022-10-18T19:44:58.822Z,89.84
2022-10-18T19:47:25.913Z,89.55
2022-10-18T19:49:53.765Z,89.26
2022-10-18T19:52:20.857Z,89.47
2022-10-18T19:54:50.666Z,89.50
2022-10-18T19:57:17.749Z,89.79
2022-10-18T19:59:44.795Z,89.91
2022-10-18T20:02:17.867Z,90.28
2022-10-18T20:04:44.936Z,90.57
2022-10-18T20:07:11.988Z,90.17
2022-10-18T20:09:39.821Z,90.04
2022-10-18T20:12:06.947Z,90.52
2022-10-18T20:14:34.010Z,91.39
2022-10-18T20:17:01.082Z,91.48
2022-10-18T20:19:28.192Z,90.83
2022-10-18T20:21:56.169Z,91.12
2022-10-18T20:24:23.245Z,91.05
2022-10-18T20:26:50.341Z,91.46
2022-10-18T20:29:17.477Z,91.31
2022-10-18T20:31:44.510Z,91.38
2022-10-18T20:34:11.933Z,92.39
2022-10-18T20:36:39.544Z,92.33
2022-10-18T20:39:07.705Z,92.97
2022-10-18T20:41:39.760Z,92.68
2022-10-18T20:44:08.385Z,92.54
2022-10-18T20:46:36.544Z,92.41
2022-10-18T20:49:04.452Z,92.93
2022-10-18T20:51:33.530Z,93.18
2022-10-18T20:54:01.551Z,92.74
2022-10-18T20:56:28.768Z,92.86
2022-10-18T20:58:56.679Z,92.77
2022-10-18T21:01:25.092Z,92.65
2022-10-18T21:03:53.258Z,92.48
2022-10-18T21:06:21.848Z,92.04
2022-10-18T21:08:52.371Z,92.45
2022-10-18T21:11:19.653Z,92.01
2022-10-18T21:13:50.226Z,92.51
2022-10-18T21:16:17.228Z,92.87
2022-10-18T21:18:44.309Z,92.82
2022-10-18T21:23:43.832Z,93.02
2022-10-18T21:26:18.239Z,93.45
2022-10-18T21:28:45.453Z,93.22
2022-10-18T21:31:20.800Z,93.71
2022-10-18T21:33:52.150Z,94.06
2022-10-18T21:36:19.140Z,94.10
2022-10-18T21:38:46.493Z,94.58
2022-10-18T21:41:14.620Z,94.89
2022-10-18T21:43:43.041Z,94.31
2022-10-18T21:46:10.443Z,94.17
2022-10-18T21:48:38.044Z,94.17
2022-10-18T21:51:06.216Z,94.70
2022-10-18T21:53:33.907Z,94.87
2022-10-18T21:56:11.558Z,95.52
2022-10-18T21:58:38.732Z,95.38
2022-10-18T22:01:09.953Z,95.55
2022-10-18T22:03:37.175Z,96.04
2022-10-18T22:06:09.288Z,96.25
2022-10-18T22:08:36.402Z,96.78
2022-10-18T22:11:03.375Z,97.13
2022-10-18T22:13:30.793Z,96.80
2022-10-18T22:16:00.767Z,97.34
2022-10-18T22:18:27.846Z,97.91
2022-10-18T22:20:55.427Z,97.91
2022-10-18T22:23:22.469Z,97.35
2022-10-18T22:25:49.617Z,97.41
2022-10-18T22:28:16.672Z,97.61
2022-10-18T22:30:43.863Z,97.08
2022-10-18T22:33:11.119Z,97.96
2022-10-18T22:35:38.147Z,98.12
2022-10-18T22:38:05.308Z,98.12
2022-10-18T22:40:32.344Z,97.76
2022-10-18T22:42:59.460Z,97.89
2022-10-18T22:45:26.421Z,98.10
2022-10-18T22:47:53.492Z,98.15
2022-10-18T22:50:20.487Z,98.24
2022-10-18T22:52:48.383Z,98.41
2022-10-18T22:55:17.520Z,98.60
2022-10-18T22:57:44.504Z,99.26
2022-10-18T23:00:11.843Z,99.89
2022-10-18T23:02:38.853Z,100.00
2022-10-18T23:05:06.050Z,99.59
2022-10-18T23:07:33.083Z,99.23
2022-10-18T23:10:00.158Z,99.54
2022-10-18T23:12:27.209Z,99.21
2022-10-18T23:14:54.411Z,99.40
2022-10-18T23:17:21.488Z,99.81
2022-10-18T23:19:48.467Z,99.90
2022-10-18T23:22:16.788Z,99.90
2022-10-18T23:24:44.476Z,100.00
2022-10-18T23:27:11.460Z,100.00
2022-10-18T23:29:38.513Z,100.00
2022-10-18T23:32:06.829Z,100.00
2022-10-18T23:34:33.905Z,100.00
2022-10-18T23:37:00.982Z,100.00
2022-10-18T23:39:28.135Z,100.00
2022-10-18T23:41:55.177Z,100.00
2022-10-18T23:44:22.388Z,100.00
2022-10-18T23:46:49.477Z,100.00
2022-10-18T23:49:16.541Z,100.00
2022-10-18T23:51:43.605Z,100.00
2022-10-18T23:54:10.771Z,100.00
2022-10-18T23:56:37.814Z,100.00
2022-10-18T23:59:04.976Z,100.00
